sensor_id;sensor_type;location;lat;lon;timestamp;pressure;altitude;pressure_sealevel;temperature;humidity
77360;BME280;66426;51.454;7.266;2023-06-14T00:00:20;99937.28;;;18.49;50.83
77360;BME280;66426;51.454;7.266;2023-06-14T00:01:22;99934.91;;;18.14;51.07
77360;BME280;66426;51.454;7.266;2023-06-14T00:02:23;99941.53;;;18.32;51.09
77360;BME280;66426;51.454;7.266;2023-06-14T00:03:25;99940.31;;;18.46;49.98
77360;BME280;66426;51.454;7.266;2023-06-14T00:04:26;99941.63;;;18.52;49.84
77360;BME280;66426;51.454;7.266;2023-06-14T00:05:27;99942.91;;;18.48;50.04
77360;BME280;66426;51.454;7.266;2023-06-14T00:06:30;99943.69;;;18.39;51.03
77360;BME280;66426;51.454;7.266;2023-06-14T00:07:35;99940.91;;;18.29;51.00
77360;BME280;66426;51.454;7.266;2023-06-14T00:08:36;99944.91;;;18.25;51.30
77360;BME280;66426;51.454;7.266;2023-06-14T00:09:37;99942.06;;;18.47;50.38
77360;BME280;66426;51.454;7.266;2023-06-14T00:10:38;99949.69;;;18.32;50.57
77360;BME280;66426;51.454;7.266;2023-06-14T00:11:41;99953.31;;;18.22;50.47
77360;BME280;66426;51.454;7.266;2023-06-14T00:12:42;99945.91;;;18.45;50.25
77360;BME280;66426;51.454;7.266;2023-06-14T00:13:43;99951.56;;;18.53;49.93
77360;BME280;66426;51.454;7.266;2023-06-14T00:14:44;99953.63;;;18.40;50.32
77360;BME280;66426;51.454;7.266;2023-06-14T00:15:46;99948.16;;;18.19;50.65
77360;BME280;66426;51.454;7.266;2023-06-14T00:16:48;99956.53;;;18.27;50.66
77360;BME280;66426;51.454;7.266;2023-06-14T00:17:49;99953.16;;;18.35;50.90
77360;BME280;66426;51.454;7.266;2023-06-14T00:18:51;99953.59;;;18.19;50.78
77360;BME280;66426;51.454;7.266;2023-06-14T00:19:54;99957.72;;;18.34;50.63
77360;BME280;66426;51.454;7.266;2023-06-14T00:20:57;99956.53;;;18.27;50.41
77360;BME280;66426;51.454;7.266;2023-06-14T00:21:58;99953.75;;;18.17;51.07
77360;BME280;66426;51.454;7.266;2023-06-14T00:23:00;99958.19;;;17.97;52.14
77360;BME280;66426;51.454;7.266;2023-06-14T00:24:01;99965.06;;;18.01;51.60
77360;BME280;66426;51.454;7.266;2023-06-14T00:25:02;99961.97;;;18.06;52.01
77360;BME280;66426;51.454;7.266;2023-06-14T00:26:03;99958.47;;;18.15;50.08
77360;BME280;66426;51.454;7.266;2023-06-14T00:27:04;99966.19;;;18.10;50.94
77360;BME280;66426;51.454;7.266;2023-06-14T00:28:06;99965.38;;;17.87;51.06
77360;BME280;66426;51.454;7.266;2023-06-14T00:29:07;99965.06;;;18.01;51.29
77360;BME280;66426;51.454;7.266;2023-06-14T00:30:09;99963.56;;;18.08;51.14
77360;BME280;66426;51.454;7.266;2023-06-14T00:31:10;99970.88;;;18.08;50.91
77360;BME280;66426;51.454;7.266;2023-06-14T00:32:11;99962.16;;;17.93;51.56
77360;BME280;66426;51.454;7.266;2023-06-14T00:33:12;99961.97;;;18.06;51.11
77360;BME280;66426;51.454;7.266;2023-06-14T00:34:14;99969.00;;;18.08;50.37
77360;BME280;66426;51.454;7.266;2023-06-14T00:35:15;99971.91;;;17.96;51.04
77360;BME280;66426;51.454;7.266;2023-06-14T00:36:16;99972.88;;;18.06;50.81
77360;BME280;66426;51.454;7.266;2023-06-14T00:37:17;99973.53;;;18.19;50.07
77360;BME280;66426;51.454;7.266;2023-06-14T00:38:18;99965.84;;;18.24;49.56
77360;BME280;66426;51.454;7.266;2023-06-14T00:39:19;99969.88;;;18.09;50.43
77360;BME280;66426;51.454;7.266;2023-06-14T00:40:20;99963.38;;;18.21;50.50
77360;BME280;66426;51.454;7.266;2023-06-14T00:41:21;99977.16;;;18.20;50.48
77360;BME280;66426;51.454;7.266;2023-06-14T00:42:25;99968.47;;;17.94;50.93
77360;BME280;66426;51.454;7.266;2023-06-14T00:43:27;99977.78;;;18.12;50.85
77360;BME280;66426;51.454;7.266;2023-06-14T00:44:28;99974.00;;;18.24;50.26
77360;BME280;66426;51.454;7.266;2023-06-14T00:45:29;99973.63;;;18.08;50.46
77360;BME280;66426;51.454;7.266;2023-06-14T00:46:32;99967.22;;;17.98;51.20
77360;BME280;66426;51.454;7.266;2023-06-14T00:47:33;99972.59;;;18.09;50.77
77360;BME280;66426;51.454;7.266;2023-06-14T00:48:35;99970.16;;;18.06;49.82
77360;BME280;66426;51.454;7.266;2023-06-14T00:49:38;99976.28;;;17.87;50.85
77360;BME280;66426;51.454;7.266;2023-06-14T00:50:39;99974.44;;;17.87;50.81
77360;BME280;66426;51.454;7.266;2023-06-14T00:51:41;99971.16;;;18.05;51.53
77360;BME280;66426;51.454;7.266;2023-06-14T00:52:42;99970.72;;;17.88;50.90
77360;BME280;66426;51.454;7.266;2023-06-14T00:53:44;99974.75;;;18.05;50.07
77360;BME280;66426;51.454;7.266;2023-06-14T00:54:48;99977.16;;;18.20;49.92
77360;BME280;66426;51.454;7.266;2023-06-14T00:55:49;99985.84;;;18.14;50.49
77360;BME280;66426;51.454;7.266;2023-06-14T00:56:50;99979.19;;;18.06;51.08
77360;BME280;66426;51.454;7.266;2023-06-14T00:57:51;99980.03;;;18.07;51.14
77360;BME280;66426;51.454;7.266;2023-06-14T00:58:52;99979.00;;;18.19;50.56
77360;BME280;66426;51.454;7.266;2023-06-14T00:59:53;99978.84;;;18.00;51.23
77360;BME280;66426;51.454;7.266;2023-06-14T01:00:56;99985.34;;;17.87;51.27
77360;BME280;66426;51.454;7.266;2023-06-14T01:01:57;99977.00;;;17.89;51.03
77360;BME280;66426;51.454;7.266;2023-06-14T01:02:58;99980.31;;;18.04;51.12
77360;BME280;66426;51.454;7.266;2023-06-14T01:03:59;99985.91;;;18.02;51.17
77360;BME280;66426;51.454;7.266;2023-06-14T01:05:01;99978.59;;;18.03;51.97
77360;BME280;66426;51.454;7.266;2023-06-14T01:06:09;99984.94;;;17.92;50.96
77360;BME280;66426;51.454;7.266;2023-06-14T01:07:23;99984.09;;;17.69;51.25
77360;BME280;66426;51.454;7.266;2023-06-14T01:08:34;99976.88;;;17.79;50.96
77360;BME280;66426;51.454;7.266;2023-06-14T01:09:46;99985.47;;;17.63;51.88
77360;BME280;66426;51.454;7.266;2023-06-14T01:10:53;99988.91;;;17.77;51.95
77360;BME280;66426;51.454;7.266;2023-06-14T01:12:00;99980.16;;;17.62;51.67
77360;BME280;66426;51.454;7.266;2023-06-14T01:13:08;99984.53;;;17.42;51.99
77360;BME280;66426;51.454;7.266;2023-06-14T01:14:12;99977.94;;;17.44;52.77
77360;BME280;66426;51.454;7.266;2023-06-14T01:15:14;99980.66;;;17.56;51.80
77360;BME280;66426;51.454;7.266;2023-06-14T01:16:16;99987.84;;;17.57;51.83
77360;BME280;66426;51.454;7.266;2023-06-14T01:17:18;99980.03;;;17.52;51.96
77360;BME280;66426;51.454;7.266;2023-06-14T01:18:20;99989.59;;;17.58;51.92
77360;BME280;66426;51.454;7.266;2023-06-14T01:19:22;99985.72;;;17.83;51.41
77360;BME280;66426;51.454;7.266;2023-06-14T01:20:28;99982.59;;;17.76;51.48
77360;BME280;66426;51.454;7.266;2023-06-14T01:21:30;99979.41;;;17.71;51.43
77360;BME280;66426;51.454;7.266;2023-06-14T01:22:31;99982.84;;;17.84;51.60
77360;BME280;66426;51.454;7.266;2023-06-14T01:23:33;99977.84;;;17.57;51.56
77360;BME280;66426;51.454;7.266;2023-06-14T01:24:34;99980.31;;;17.49;52.44
77360;BME280;66426;51.454;7.266;2023-06-14T01:25:36;99982.50;;;17.66;51.56
77360;BME280;66426;51.454;7.266;2023-06-14T01:26:38;99982.75;;;17.75;51.46
77360;BME280;66426;51.454;7.266;2023-06-14T01:27:47;99980.63;;;17.78;50.40
77360;BME280;66426;51.454;7.266;2023-06-14T01:28:50;99976.72;;;17.49;52.27
77360;BME280;66426;51.454;7.266;2023-06-14T01:29:53;99986.66;;;17.38;51.75
77360;BME280;66426;51.454;7.266;2023-06-14T01:31:00;99988.31;;;17.62;51.55
77360;BME280;66426;51.454;7.266;2023-06-14T01:32:05;99984.25;;;17.67;52.04
77360;BME280;66426;51.454;7.266;2023-06-14T01:33:07;99987.84;;;17.68;51.02
77360;BME280;66426;51.454;7.266;2023-06-14T01:34:08;99985.47;;;17.86;51.05
77360;BME280;66426;51.454;7.266;2023-06-14T01:35:09;99980.53;;;17.80;51.28
77360;BME280;66426;51.454;7.266;2023-06-14T01:36:11;99979.88;;;17.76;51.55
77360;BME280;66426;51.454;7.266;2023-06-14T01:37:13;99980.50;;;17.68;51.29
77360;BME280;66426;51.454;7.266;2023-06-14T01:38:15;99987.97;;;17.55;51.16
77360;BME280;66426;51.454;7.266;2023-06-14T01:39:19;99986.19;;;17.88;51.11
77360;BME280;66426;51.454;7.266;2023-06-14T01:40:21;99979.50;;;17.69;50.92
77360;BME280;66426;51.454;7.266;2023-06-14T01:41:24;99984.09;;;17.69;51.42
77360;BME280;66426;51.454;7.266;2023-06-14T01:42:25;99987.00;;;17.34;51.82
77360;BME280;66426;51.454;7.266;2023-06-14T01:43:29;99988.22;;;17.52;52.05
77360;BME280;66426;51.454;7.266;2023-06-14T01:44:31;99979.59;;;17.36;52.02
77360;BME280;66426;51.454;7.266;2023-06-14T01:45:33;99984.78;;;17.50;51.66
77360;BME280;66426;51.454;7.266;2023-06-14T01:46:36;99983.34;;;17.78;50.83
77360;BME280;66426;51.454;7.266;2023-06-14T01:47:37;99985.06;;;17.79;51.40
77360;BME280;66426;51.454;7.266;2023-06-14T01:48:39;99979.41;;;17.82;51.04
77360;BME280;66426;51.454;7.266;2023-06-14T01:49:40;99985.84;;;17.59;51.25
77360;BME280;66426;51.454;7.266;2023-06-14T01:50:41;99983.50;;;17.65;50.80
77360;BME280;66426;51.454;7.266;2023-06-14T01:51:42;99979.41;;;17.82;51.28
77360;BME280;66426;51.454;7.266;2023-06-14T01:52:44;99985.00;;;17.58;51.14
77360;BME280;66426;51.454;7.266;2023-06-14T01:53:45;99986.75;;;17.37;52.35
77360;BME280;66426;51.454;7.266;2023-06-14T01:54:48;99983.28;;;17.57;51.54
77360;BME280;66426;51.454;7.266;2023-06-14T01:55:50;99983.06;;;17.38;50.58
77360;BME280;66426;51.454;7.266;2023-06-14T01:56:54;99985.63;;;17.39;51.98
77360;BME280;66426;51.454;7.266;2023-06-14T01:57:55;99982.88;;;17.62;51.34
77360;BME280;66426;51.454;7.266;2023-06-14T01:58:57;99984.91;;;17.37;51.49
77360;BME280;66426;51.454;7.266;2023-06-14T01:59:58;99983.91;;;17.38;51.87
77360;BME280;66426;51.454;7.266;2023-06-14T02:00:58;99978.94;;;17.55;51.80
77360;BME280;66426;51.454;7.266;2023-06-14T02:02:02;99981.16;;;17.61;51.54
77360;BME280;66426;51.454;7.266;2023-06-14T02:03:04;99977.88;;;17.35;51.74
77360;BME280;66426;51.454;7.266;2023-06-14T02:04:05;99980.44;;;17.36;52.19
77360;BME280;66426;51.454;7.266;2023-06-14T02:05:06;99976.97;;;17.34;52.32
77360;BME280;66426;51.454;7.266;2023-06-14T02:06:07;99980.66;;;17.56;51.39
77360;BME280;66426;51.454;7.266;2023-06-14T02:07:08;99977.44;;;17.62;50.90
77360;BME280;66426;51.454;7.266;2023-06-14T02:08:08;99985.28;;;17.33;52.20
77360;BME280;66426;51.454;7.266;2023-06-14T02:09:10;99980.97;;;17.30;52.28
77360;BME280;66426;51.454;7.266;2023-06-14T02:10:12;99984.28;;;17.45;51.85
77360;BME280;66426;51.454;7.266;2023-06-14T02:11:14;99984.53;;;17.19;52.65
77360;BME280;66426;51.454;7.266;2023-06-14T02:12:16;99978.84;;;17.34;52.41
77360;BME280;66426;51.454;7.266;2023-06-14T02:13:17;99982.69;;;17.42;51.65
77360;BME280;66426;51.454;7.266;2023-06-14T02:14:18;99983.81;;;17.29;52.09
77360;BME280;66426;51.454;7.266;2023-06-14T02:15:19;99985.91;;;17.25;51.79
77360;BME280;66426;51.454;7.266;2023-06-14T02:16:20;99984.41;;;17.32;51.72
77360;BME280;66426;51.454;7.266;2023-06-14T02:17:21;99976.13;;;17.34;52.08
77360;BME280;66426;51.454;7.266;2023-06-14T02:18:22;99983.31;;;17.23;52.65
77360;BME280;66426;51.454;7.266;2023-06-14T02:19:23;99989.63;;;17.35;52.07
77360;BME280;66426;51.454;7.266;2023-06-14T02:20:24;99984.44;;;17.21;52.67
77360;BME280;66426;51.454;7.266;2023-06-14T02:21:25;99987.88;;;17.34;51.23
77360;BME280;66426;51.454;7.266;2023-06-14T02:22:26;99990.00;;;17.31;52.56
77360;BME280;66426;51.454;7.266;2023-06-14T02:23:27;99989.88;;;17.21;52.41
77360;BME280;66426;51.454;7.266;2023-06-14T02:24:28;99986.66;;;17.04;52.66
77360;BME280;66426;51.454;7.266;2023-06-14T02:25:30;99991.38;;;17.02;53.10
77360;BME280;66426;51.454;7.266;2023-06-14T02:26:31;99986.41;;;17.08;53.15
77360;BME280;66426;51.454;7.266;2023-06-14T02:27:32;99994.94;;;17.25;52.13
77360;BME280;66426;51.454;7.266;2023-06-14T02:28:34;99991.22;;;17.27;52.43
77360;BME280;66426;51.454;7.266;2023-06-14T02:29:36;100001.63;;;17.10;53.25
77360;BME280;66426;51.454;7.266;2023-06-14T02:30:37;99987.16;;;16.98;53.03
77360;BME280;66426;51.454;7.266;2023-06-14T02:31:38;99994.31;;;16.88;52.76
77360;BME280;66426;51.454;7.266;2023-06-14T02:32:39;99995.69;;;17.05;53.07
77360;BME280;66426;51.454;7.266;2023-06-14T02:33:44;99993.31;;;17.12;52.60
77360;BME280;66426;51.454;7.266;2023-06-14T02:34:45;99994.09;;;17.02;52.96
77360;BME280;66426;51.454;7.266;2023-06-14T02:35:50;99997.16;;;17.09;52.91
77360;BME280;66426;51.454;7.266;2023-06-14T02:36:51;99997.81;;;17.13;52.98
77360;BME280;66426;51.454;7.266;2023-06-14T02:37:53;99994.31;;;17.33;52.79
77360;BME280;66426;51.454;7.266;2023-06-14T02:38:54;99990.84;;;17.42;52.33
77360;BME280;66426;51.454;7.266;2023-06-14T02:39:56;99995.44;;;17.31;52.36
77360;BME280;66426;51.454;7.266;2023-06-14T02:40:58;99998.91;;;17.10;52.65
77360;BME280;66426;51.454;7.266;2023-06-14T02:42:01;99995.41;;;16.97;52.61
77360;BME280;66426;51.454;7.266;2023-06-14T02:43:02;99994.75;;;16.71;52.60
77360;BME280;66426;51.454;7.266;2023-06-14T02:44:03;99993.59;;;16.97;52.27
77360;BME280;66426;51.454;7.266;2023-06-14T02:45:05;99992.97;;;17.05;52.70
77360;BME280;66426;51.454;7.266;2023-06-14T02:46:06;99992.81;;;16.84;53.25
77360;BME280;66426;51.454;7.266;2023-06-14T02:47:07;99993.72;;;16.96;53.54
77360;BME280;66426;51.454;7.266;2023-06-14T02:48:08;99989.72;;;16.89;52.63
77360;BME280;66426;51.454;7.266;2023-06-14T02:49:10;99994.81;;;17.04;53.03
77360;BME280;66426;51.454;7.266;2023-06-14T02:50:11;99986.78;;;17.14;52.52
77360;BME280;66426;51.454;7.266;2023-06-14T02:51:12;99995.31;;;16.98;53.32
77360;BME280;66426;51.454;7.266;2023-06-14T02:52:14;99992.81;;;16.84;52.82
77360;BME280;66426;51.454;7.266;2023-06-14T02:53:15;99992.22;;;16.92;53.46
77360;BME280;66426;51.454;7.266;2023-06-14T02:56:30;99996.28;;;16.86;53.53
77360;BME280;66426;51.454;7.266;2023-06-14T02:57:31;99997.28;;;16.85;53.69
77360;BME280;66426;51.454;7.266;2023-06-14T02:58:33;99997.53;;;16.93;53.50
77360;BME280;66426;51.454;7.266;2023-06-14T02:59:34;100002.63;;;16.98;52.87
77360;BME280;66426;51.454;7.266;2023-06-14T03:00:36;100006.81;;;17.13;52.04
77360;BME280;66426;51.454;7.266;2023-06-14T03:01:37;100006.81;;;16.91;52.59
77360;BME280;66426;51.454;7.266;2023-06-14T03:02:41;100002.78;;;16.72;53.17
77360;BME280;66426;51.454;7.266;2023-06-14T03:03:43;100003.22;;;17.01;52.66
77360;BME280;66426;51.454;7.266;2023-06-14T03:04:44;100007.69;;;17.14;52.96
77360;BME280;66426;51.454;7.266;2023-06-14T03:05:48;100016.16;;;16.75;53.06
77360;BME280;66426;51.454;7.266;2023-06-14T03:06:50;100016.53;;;16.71;53.65
77360;BME280;66426;51.454;7.266;2023-06-14T03:07:51;100018.50;;;16.69;53.42
77360;BME280;66426;51.454;7.266;2023-06-14T03:08:52;100020.00;;;16.73;53.37
77360;BME280;66426;51.454;7.266;2023-06-14T03:09:55;100017.22;;;16.61;53.92
77360;BME280;66426;51.454;7.266;2023-06-14T03:10:56;100020.53;;;16.89;52.49
77360;BME280;66426;51.454;7.266;2023-06-14T03:11:59;100024.50;;;16.85;52.69
77360;BME280;66426;51.454;7.266;2023-06-14T03:13:00;100023.94;;;16.69;53.36
77360;BME280;66426;51.454;7.266;2023-06-14T03:14:02;100020.53;;;16.54;54.01
77360;BME280;66426;51.454;7.266;2023-06-14T03:15:08;100022.66;;;16.50;53.88
77360;BME280;66426;51.454;7.266;2023-06-14T03:16:10;100016.97;;;16.65;53.30
77360;BME280;66426;51.454;7.266;2023-06-14T03:17:11;100015.09;;;16.78;53.02
77360;BME280;66426;51.454;7.266;2023-06-14T03:18:12;100018.56;;;16.91;53.15
77360;BME280;66426;51.454;7.266;2023-06-14T03:19:13;100028.56;;;16.79;52.71
77360;BME280;66426;51.454;7.266;2023-06-14T03:20:14;100020.66;;;16.88;52.58
77360;BME280;66426;51.454;7.266;2023-06-14T03:21:16;100020.53;;;16.89;53.20
77360;BME280;66426;51.454;7.266;2023-06-14T03:22:17;100024.88;;;16.92;52.55
77360;BME280;66426;51.454;7.266;2023-06-14T03:23:18;100019.91;;;16.86;52.17
77360;BME280;66426;51.454;7.266;2023-06-14T03:24:19;100020.53;;;16.89;52.64
77360;BME280;66426;51.454;7.266;2023-06-14T03:25:20;100026.84;;;16.54;53.32
77360;BME280;66426;51.454;7.266;2023-06-14T03:26:22;100027.16;;;16.63;53.06
77360;BME280;66426;51.454;7.266;2023-06-14T03:27:24;100030.97;;;16.71;52.97
77360;BME280;66426;51.454;7.266;2023-06-14T03:28:26;100025.22;;;16.87;53.34
77360;BME280;66426;51.454;7.266;2023-06-14T03:29:27;100037.28;;;16.60;53.25
77360;BME280;66426;51.454;7.266;2023-06-14T03:30:29;100035.31;;;16.63;53.59
77360;BME280;66426;51.454;7.266;2023-06-14T03:31:30;100037.34;;;16.83;52.51
77360;BME280;66426;51.454;7.266;2023-06-14T03:32:34;100035.22;;;16.75;52.72
77360;BME280;66426;51.454;7.266;2023-06-14T03:33:35;100034.81;;;16.69;53.34
77360;BME280;66426;51.454;7.266;2023-06-14T03:34:36;100038.59;;;17.01;52.51
77360;BME280;66426;51.454;7.266;2023-06-14T03:35:39;100033.03;;;16.45;52.87
77360;BME280;66426;51.454;7.266;2023-06-14T03:36:40;100040.88;;;16.37;53.95
77360;BME280;66426;51.454;7.266;2023-06-14T03:37:41;100040.44;;;16.54;54.45
77360;BME280;66426;51.454;7.266;2023-06-14T03:38:42;100044.84;;;16.68;54.29
77360;BME280;66426;51.454;7.266;2023-06-14T03:39:43;100043.03;;;16.80;54.12
77360;BME280;66426;51.454;7.266;2023-06-14T03:40:47;100048.16;;;16.72;53.16
77360;BME280;66426;51.454;7.266;2023-06-14T03:41:48;100047.94;;;16.39;53.92
77360;BME280;66426;51.454;7.266;2023-06-14T03:42:50;100050.22;;;16.57;54.35
77360;BME280;66426;51.454;7.266;2023-06-14T03:43:51;100044.69;;;16.70;53.30
77360;BME280;66426;51.454;7.266;2023-06-14T03:44:52;100050.81;;;16.85;53.34
77360;BME280;66426;51.454;7.266;2023-06-14T03:45:53;100053.44;;;16.62;53.78
77360;BME280;66426;51.454;7.266;2023-06-14T03:46:54;100058.19;;;16.71;53.08
77360;BME280;66426;51.454;7.266;2023-06-14T03:47:54;100053.69;;;16.83;52.77
77360;BME280;66426;51.454;7.266;2023-06-14T03:48:55;100052.84;;;16.70;53.17
77360;BME280;66426;51.454;7.266;2023-06-14T03:49:56;100055.19;;;16.63;52.81
77360;BME280;66426;51.454;7.266;2023-06-14T03:50:57;100055.91;;;16.54;53.33
77360;BME280;66426;51.454;7.266;2023-06-14T03:51:58;100051.97;;;16.58;53.96
77360;BME280;66426;51.454;7.266;2023-06-14T03:53:00;100054.34;;;16.63;53.72
77360;BME280;66426;51.454;7.266;2023-06-14T03:54:02;100053.84;;;16.57;54.40
77360;BME280;66426;51.454;7.266;2023-06-14T03:55:03;100059.38;;;16.56;53.63
77360;BME280;66426;51.454;7.266;2023-06-14T03:56:05;100061.00;;;16.58;53.50
77360;BME280;66426;51.454;7.266;2023-06-14T03:57:06;100068.06;;;16.37;53.88
77360;BME280;66426;51.454;7.266;2023-06-14T03:58:09;100062.44;;;16.40;53.62
77360;BME280;66426;51.454;7.266;2023-06-14T03:59:09;100055.22;;;16.74;53.24
77360;BME280;66426;51.454;7.266;2023-06-14T04:00:11;100065.13;;;16.75;52.75
77360;BME280;66426;51.454;7.266;2023-06-14T04:01:13;100067.78;;;16.88;52.83
77360;BME280;66426;51.454;7.266;2023-06-14T04:02:14;100064.06;;;16.89;53.30
77360;BME280;66426;51.454;7.266;2023-06-14T04:03:18;100067.44;;;16.69;52.78
77360;BME280;66426;51.454;7.266;2023-06-14T04:04:20;100062.88;;;16.69;53.28
77360;BME280;66426;51.454;7.266;2023-06-14T04:05:22;100071.25;;;16.55;53.70
77360;BME280;66426;51.454;7.266;2023-06-14T04:06:24;100072.97;;;16.56;53.38
77360;BME280;66426;51.454;7.266;2023-06-14T04:07:25;100068.38;;;16.45;53.72
77360;BME280;66426;51.454;7.266;2023-06-14T04:08:29;100071.81;;;16.47;53.47
77360;BME280;66426;51.454;7.266;2023-06-14T04:09:30;100074.69;;;16.57;53.60
77360;BME280;66426;51.454;7.266;2023-06-14T04:10:30;100076.47;;;16.34;53.28
77360;BME280;66426;51.454;7.266;2023-06-14T04:11:31;100083.00;;;16.31;54.11
77360;BME280;66426;51.454;7.266;2023-06-14T04:12:32;100086.38;;;16.35;53.60
77360;BME280;66426;51.454;7.266;2023-06-14T04:13:35;100077.94;;;16.62;52.99
77360;BME280;66426;51.454;7.266;2023-06-14T04:14:36;100082.59;;;16.49;53.48
77360;BME280;66426;51.454;7.266;2023-06-14T04:15:38;100084.25;;;16.63;53.41
77360;BME280;66426;51.454;7.266;2023-06-14T04:16:42;100091.75;;;16.48;53.30
77360;BME280;66426;51.454;7.266;2023-06-14T04:17:43;100091.44;;;16.64;53.46
77360;BME280;66426;51.454;7.266;2023-06-14T04:18:44;100081.59;;;16.50;53.72
77360;BME280;66426;51.454;7.266;2023-06-14T04:19:47;100086.66;;;16.43;54.28
77360;BME280;66426;51.454;7.266;2023-06-14T04:20:48;100095.16;;;16.38;53.89
77360;BME280;66426;51.454;7.266;2023-06-14T04:21:49;100083.38;;;16.62;53.50
77360;BME280;66426;51.454;7.266;2023-06-14T04:22:50;100092.53;;;16.37;53.97
77360;BME280;66426;51.454;7.266;2023-06-14T04:23:51;100096.16;;;16.37;53.91
77360;BME280;66426;51.454;7.266;2023-06-14T04:24:54;100095.03;;;16.16;54.36
77360;BME280;66426;51.454;7.266;2023-06-14T04:25:56;100099.28;;;16.20;54.02
77360;BME280;66426;51.454;7.266;2023-06-14T04:27:03;100097.25;;;16.35;54.09
77360;BME280;66426;51.454;7.266;2023-06-14T04:28:04;100099.91;;;16.48;53.85
77360;BME280;66426;51.454;7.266;2023-06-14T04:29:07;100095.84;;;16.29;53.96
77360;BME280;66426;51.454;7.266;2023-06-14T04:30:08;100097.63;;;16.42;53.10
77360;BME280;66426;51.454;7.266;2023-06-14T04:31:09;100097.22;;;16.59;52.64
77360;BME280;66426;51.454;7.266;2023-06-14T04:32:10;100101.03;;;16.56;53.33
77360;BME280;66426;51.454;7.266;2023-06-14T04:33:14;100104.25;;;16.50;53.32
77360;BME280;66426;51.454;7.266;2023-06-14T04:34:15;100095.50;;;16.58;53.43
77360;BME280;66426;51.454;7.266;2023-06-14T04:35:19;100103.72;;;16.45;53.32
77360;BME280;66426;51.454;7.266;2023-06-14T04:36:21;100094.97;;;16.29;54.10
77360;BME280;66426;51.454;7.266;2023-06-14T04:37:23;100101.94;;;16.33;53.86
77360;BME280;66426;51.454;7.266;2023-06-14T04:38:24;100101.09;;;16.20;54.02
77360;BME280;66426;51.454;7.266;2023-06-14T04:39:26;100098.47;;;16.31;53.77
77360;BME280;66426;51.454;7.266;2023-06-14T04:40:28;100105.03;;;16.64;53.38
77360;BME280;66426;51.454;7.266;2023-06-14T04:41:29;100109.19;;;16.32;53.74
77360;BME280;66426;51.454;7.266;2023-06-14T04:42:31;100098.00;;;16.13;54.04
77360;BME280;66426;51.454;7.266;2023-06-14T04:43:32;100104.06;;;16.41;55.35
77360;BME280;66426;51.454;7.266;2023-06-14T04:44:40;100107.88;;;16.38;54.72
77360;BME280;66426;51.454;7.266;2023-06-14T04:45:41;100101.97;;;16.44;54.14
77360;BME280;66426;51.454;7.266;2023-06-14T04:46:45;100099.31;;;16.31;54.28
77360;BME280;66426;51.454;7.266;2023-06-14T04:47:46;100108.09;;;16.59;52.76
77360;BME280;66426;51.454;7.266;2023-06-14T04:48:47;100102.31;;;16.64;53.76
77360;BME280;66426;51.454;7.266;2023-06-14T04:49:51;100113.91;;;16.78;52.97
77360;BME280;66426;51.454;7.266;2023-06-14T04:50:53;100106.63;;;16.66;53.14
77360;BME280;66426;51.454;7.266;2023-06-14T04:51:56;100120.63;;;16.37;52.98
77360;BME280;66426;51.454;7.266;2023-06-14T04:53:02;100118.00;;;16.36;54.67
77360;BME280;66426;51.454;7.266;2023-06-14T04:54:03;100115.16;;;16.61;53.01
77360;BME280;66426;51.454;7.266;2023-06-14T04:55:06;100116.38;;;16.57;53.63
77360;BME280;66426;51.454;7.266;2023-06-14T04:56:07;100112.03;;;16.79;53.63
77360;BME280;66426;51.454;7.266;2023-06-14T04:57:08;100117.94;;;16.49;54.06
77360;BME280;66426;51.454;7.266;2023-06-14T04:58:14;100124.16;;;16.62;54.24
77360;BME280;66426;51.454;7.266;2023-06-14T04:59:15;100116.59;;;16.54;54.35
77360;BME280;66426;51.454;7.266;2023-06-14T05:00:19;100120.34;;;16.65;53.68
77360;BME280;66426;51.454;7.266;2023-06-14T05:01:21;100126.31;;;16.70;54.11
77360;BME280;66426;51.454;7.266;2023-06-14T05:02:24;100125.44;;;16.69;54.13
77360;BME280;66426;51.454;7.266;2023-06-14T05:03:26;100116.63;;;16.78;54.17
77360;BME280;66426;51.454;7.266;2023-06-14T05:04:28;100120.47;;;16.87;53.76
77360;BME280;66426;51.454;7.266;2023-06-14T05:05:29;100126.69;;;16.65;53.57
77360;BME280;66426;51.454;7.266;2023-06-14T05:06:30;100129.44;;;16.52;54.36
77360;BME280;66426;51.454;7.266;2023-06-14T05:07:31;100123.22;;;16.63;53.56
77360;BME280;66426;51.454;7.266;2023-06-14T05:08:34;100118.47;;;16.78;54.27
77360;BME280;66426;51.454;7.266;2023-06-14T05:09:35;100122.31;;;16.87;53.65
77360;BME280;66426;51.454;7.266;2023-06-14T05:10:36;100121.56;;;16.85;53.90
77360;BME280;66426;51.454;7.266;2023-06-14T05:11:37;100107.63;;;16.65;53.84
77360;BME280;66426;51.454;7.266;2023-06-14T05:12:38;100117.69;;;16.76;52.48
77360;BME280;66426;51.454;7.266;2023-06-14T05:13:39;100120.50;;;16.74;53.91
77360;BME280;66426;51.454;7.266;2023-06-14T05:14:41;100126.66;;;16.89;53.29
77360;BME280;66426;51.454;7.266;2023-06-14T05:15:44;100125.19;;;16.85;53.00
77360;BME280;66426;51.454;7.266;2023-06-14T05:16:45;100123.56;;;16.58;54.66
77360;BME280;66426;51.454;7.266;2023-06-14T05:17:46;100128.00;;;16.59;54.17
77360;BME280;66426;51.454;7.266;2023-06-14T05:18:55;100122.38;;;16.74;53.97
77360;BME280;66426;51.454;7.266;2023-06-14T05:19:56;100133.34;;;16.72;54.85
77360;BME280;66426;51.454;7.266;2023-06-14T05:20:57;100124.59;;;16.69;54.71
77360;BME280;66426;51.454;7.266;2023-06-14T05:21:58;100123.13;;;16.76;54.71
77360;BME280;66426;51.454;7.266;2023-06-14T05:22:59;100130.38;;;16.88;54.21
77360;BME280;66426;51.454;7.266;2023-06-14T05:24:01;100126.63;;;16.78;53.17
77360;BME280;66426;51.454;7.266;2023-06-14T05:25:02;100129.72;;;16.85;54.29
77360;BME280;66426;51.454;7.266;2023-06-14T05:26:04;100125.72;;;17.01;54.31
77360;BME280;66426;51.454;7.266;2023-06-14T05:27:05;100127.69;;;16.99;54.00
77360;BME280;66426;51.454;7.266;2023-06-14T05:28:06;100127.81;;;16.98;54.10